createdAt,value
2023-01-29T00:00:52.590Z,6.20
2023-01-29T00:02:24.312Z,6.28
2023-01-29T00:03:56.236Z,7.68
2023-01-29T00:05:28.679Z,6.97
2023-01-29T00:07:00.361Z,6.28
2023-01-29T00:08:37.073Z,5.47
2023-01-29T00:10:09.478Z,6.88
2023-01-29T00:11:41.314Z,7.13
2023-01-29T00:13:13.289Z,6.65
2023-01-29T00:14:44.845Z,6.25
2023-01-29T00:16:16.522Z,6.80
2023-01-29T00:17:48.176Z,7.45
2023-01-29T00:19:19.828Z,5.53
2023-01-29T00:20:51.679Z,6.78
2023-01-29T00:22:23.304Z,6.00
2023-01-29T00:23:55.390Z,6.72
2023-01-29T00:25:27.038Z,5.97
2023-01-29T00:26:59.029Z,6.53
2023-01-29T00:28:31.045Z,6.50
2023-01-29T00:30:19.311Z,5.65
2023-01-29T00:31:51.232Z,6.47
2023-01-29T00:33:22.963Z,6.22
2023-01-29T00:34:54.507Z,5.95
2023-01-29T00:36:26.537Z,6.80
2023-01-29T00:37:58.642Z,6.43
2023-01-29T00:39:47.465Z,7.07
2023-01-29T00:41:38.094Z,6.38
2023-01-29T00:43:28.228Z,6.50
2023-01-29T00:44:59.933Z,6.07
2023-01-29T00:46:31.859Z,6.53
2023-01-29T00:48:04.600Z,7.00
2023-01-29T00:49:36.156Z,6.50
2023-01-29T00:51:07.704Z,6.43
2023-01-29T00:52:41.153Z,6.50
2023-01-29T00:54:14.120Z,6.72
2023-01-29T00:55:45.719Z,7.38
2023-01-29T00:57:17.352Z,7.82
2023-01-29T00:58:48.939Z,6.68
2023-01-29T01:00:20.932Z,6.47
2023-01-29T01:02:11.452Z,7.03
2023-01-29T01:03:47.011Z,5.68
2023-01-29T01:05:20.392Z,6.20
2023-01-29T01:06:52.131Z,6.25
2023-01-29T01:08:42.029Z,6.80
2023-01-29T01:10:21.382Z,6.18
2023-01-29T01:11:53.225Z,6.47
2023-01-29T01:13:24.888Z,6.43
2023-01-29T01:14:56.584Z,5.40
2023-01-29T01:16:28.401Z,5.90
2023-01-29T01:18:01.895Z,6.82
2023-01-29T01:19:33.916Z,6.80
2023-01-29T01:21:06.029Z,6.28
2023-01-29T01:22:37.603Z,6.38
2023-01-29T01:24:09.418Z,5.70
2023-01-29T01:25:41.338Z,6.68
2023-01-29T01:27:13.953Z,5.70
2023-01-29T01:28:45.572Z,6.15
2023-01-29T01:30:17.635Z,7.20
2023-01-29T01:31:49.595Z,6.00
2023-01-29T01:33:22.246Z,6.25
2023-01-29T01:34:53.964Z,6.55
2023-01-29T01:36:25.601Z,7.07
2023-01-29T01:37:57.258Z,7.00
2023-01-29T01:39:28.830Z,6.72
2023-01-29T01:41:01.227Z,6.30
2023-01-29T01:42:32.769Z,6.40
2023-01-29T01:44:06.371Z,6.68
2023-01-29T01:45:38.059Z,6.53
2023-01-29T01:47:09.756Z,6.78
2023-01-29T01:48:41.798Z,6.40
2023-01-29T01:50:22.671Z,6.05
2023-01-29T01:51:54.991Z,6.50
2023-01-29T01:53:30.728Z,5.20
2023-01-29T01:55:03.962Z,6.53
2023-01-29T01:56:41.460Z,6.50
2023-01-29T01:58:20.402Z,4.95
2023-01-29T02:00:00.134Z,5.18
2023-01-29T02:01:31.916Z,6.40
2023-01-29T02:03:23.642Z,6.03
2023-01-29T02:05:14.331Z,5.53
2023-01-29T02:07:05.027Z,5.03
2023-01-29T02:09:05.893Z,6.22
2023-01-29T02:10:44.668Z,5.60
2023-01-29T02:12:17.228Z,5.85
2023-01-29T02:13:53.579Z,6.57
2023-01-29T02:15:30.231Z,5.93
2023-01-29T02:17:01.995Z,5.82
2023-01-29T02:18:38.082Z,5.82
2023-01-29T02:20:25.760Z,5.75
2023-01-29T02:22:36.832Z,6.32
2023-01-29T02:24:29.599Z,6.05
2023-01-29T02:26:23.327Z,6.05
2023-01-29T02:28:25.431Z,6.22
2023-01-29T02:30:03.424Z,5.82
2023-01-29T02:31:48.302Z,6.90
2023-01-29T02:33:48.126Z,7.22
2023-01-29T02:35:25.925Z,6.15
2023-01-29T02:37:03.494Z,6.82
2023-01-29T02:38:47.591Z,6.53
2023-01-29T02:40:46.937Z,6.68
2023-01-29T02:42:53.064Z,6.55
2023-01-29T02:45:19.870Z,5.90
2023-01-29T02:47:03.940Z,5.75
2023-01-29T02:49:22.487Z,7.25
2023-01-29T02:51:06.675Z,5.05
2023-01-29T02:52:50.791Z,5.10
2023-01-29T02:54:34.932Z,5.93
2023-01-29T02:56:21.719Z,7.07
2023-01-29T02:57:59.873Z,6.75
2023-01-29T02:59:41.045Z,6.68
2023-01-29T03:01:22.220Z,6.78
2023-01-29T03:03:00.944Z,6.15
2023-01-29T03:04:38.655Z,6.57
2023-01-29T03:06:22.287Z,5.85
2023-01-29T03:08:01.880Z,6.53
2023-01-29T03:09:46.109Z,5.88
2023-01-29T03:11:18.392Z,6.53
2023-01-29T03:13:14.770Z,5.88
2023-01-29T03:15:09.508Z,7.25
2023-01-29T03:16:51.949Z,6.00
2023-01-29T03:18:27.846Z,4.88
2023-01-29T03:20:08.089Z,7.25
2023-01-29T03:21:51.163Z,5.70
2023-01-29T03:23:46.885Z,5.53
2023-01-29T03:25:39.777Z,5.40
2023-01-29T03:27:33.501Z,6.30
2023-01-29T03:29:25.519Z,6.28
2023-01-29T03:31:22.983Z,6.85
2023-01-29T03:33:06.548Z,5.65
2023-01-29T03:34:46.673Z,6.15
2023-01-29T03:36:45.361Z,6.50
2023-01-29T03:38:17.883Z,6.72
2023-01-29T03:39:49.659Z,5.80
2023-01-29T03:41:34.814Z,5.85
2023-01-29T03:43:35.488Z,7.93
2023-01-29T03:47:13.789Z,5.82
2023-01-29T03:49:08.393Z,6.45
2023-01-29T03:51:04.566Z,6.65
2023-01-29T03:52:52.164Z,5.63
2023-01-29T03:54:36.526Z,5.45
2023-01-29T03:56:21.115Z,5.80
2023-01-29T03:58:29.585Z,4.82
2023-01-29T04:00:14.480Z,5.68
2023-01-29T04:02:02.935Z,5.85
2023-01-29T04:03:39.229Z,6.15
2023-01-29T04:05:22.673Z,7.22
2023-01-29T04:07:15.254Z,6.15
2023-01-29T04:08:47.411Z,5.68
2023-01-29T04:10:25.027Z,6.22
2023-01-29T04:12:09.648Z,5.63
2023-01-29T04:13:45.112Z,6.90
2023-01-29T04:15:20.345Z,7.25
2023-01-29T04:16:57.765Z,6.05
2023-01-29T04:18:48.910Z,5.35
2023-01-29T04:20:21.600Z,4.82
2023-01-29T04:22:02.473Z,5.55
2023-01-29T04:23:34.503Z,6.53
2023-01-29T04:25:16.110Z,6.80
2023-01-29T04:27:06.462Z,7.18
2023-01-29T04:28:58.729Z,5.45
2023-01-29T04:30:33.584Z,6.53
2023-01-29T04:32:38.734Z,6.38
2023-01-29T04:34:18.000Z,5.88
2023-01-29T04:36:07.232Z,6.88
2023-01-29T04:37:56.566Z,6.05
2023-01-29T04:39:46.278Z,6.70
2023-01-29T04:41:42.620Z,6.55
2023-01-29T04:43:26.299Z,6.47
2023-01-29T04:45:10.158Z,5.47
2023-01-29T04:46:51.809Z,5.47
2023-01-29T04:48:38.169Z,5.53
2023-01-29T04:50:19.139Z,5.68
2023-01-29T04:52:21.434Z,5.78
2023-01-29T04:54:11.007Z,5.50
2023-01-29T04:55:54.773Z,5.55
2023-01-29T04:57:47.390Z,5.90
2023-01-29T04:59:30.795Z,5.90
2023-01-29T05:01:06.660Z,5.57
2023-01-29T05:02:41.303Z,6.68
2023-01-29T05:04:16.259Z,5.80
2023-01-29T05:05:50.092Z,6.15
2023-01-29T05:07:23.368Z,6.38
2023-01-29T05:08:57.451Z,6.22
2023-01-29T05:10:29.327Z,7.40
2023-01-29T05:12:02.594Z,5.78
2023-01-29T05:13:39.661Z,6.47
2023-01-29T05:15:19.312Z,6.57
2023-01-29T05:16:53.752Z,5.72
2023-01-29T05:18:25.421Z,6.07
2023-01-29T05:19:57.271Z,6.85
2023-01-29T05:21:29.024Z,8.40
2023-01-29T05:23:00.727Z,7.38
2023-01-29T05:24:32.369Z,7.20
2023-01-29T05:26:04.918Z,6.78
2023-01-29T05:27:55.587Z,5.85
2023-01-29T05:29:27.188Z,6.88
2023-01-29T05:30:58.965Z,6.50
2023-01-29T05:32:30.642Z,5.90
2023-01-29T05:34:02.197Z,5.72
2023-01-29T05:35:33.968Z,6.60
2023-01-29T05:37:05.661Z,6.03
2023-01-29T05:38:37.263Z,6.22
2023-01-29T05:40:09.664Z,6.28
2023-01-29T05:41:41.618Z,6.93
2023-01-29T05:43:17.410Z,7.28
2023-01-29T05:44:48.936Z,7.35
2023-01-29T05:46:20.669Z,6.57
2023-01-29T05:47:59.952Z,6.63
2023-01-29T05:49:31.521Z,6.13
2023-01-29T05:51:04.875Z,5.82
2023-01-29T05:52:36.525Z,5.68
2023-01-29T05:54:08.051Z,6.30
2023-01-29T05:55:39.659Z,6.15
2023-01-29T05:57:11.244Z,5.65
2023-01-29T05:58:42.838Z,6.57
2023-01-29T06:00:15.257Z,6.80
2023-01-29T06:01:47.163Z,6.95
2023-01-29T06:03:18.846Z,7.70
2023-01-29T06:04:53.274Z,7.03
2023-01-29T06:06:24.891Z,5.75
2023-01-29T06:07:56.495Z,5.60
2023-01-29T06:09:28.076Z,6.70
2023-01-29T06:10:59.711Z,6.90
2023-01-29T06:12:31.512Z,6.28
2023-01-29T06:14:03.181Z,6.35
2023-01-29T06:15:34.766Z,6.65
2023-01-29T06:17:06.457Z,5.93
2023-01-29T06:18:39.395Z,6.35
2023-01-29T06:20:11.488Z,6.47
2023-01-29T06:21:43.088Z,6.20
2023-01-29T06:23:14.686Z,6.10
2023-01-29T06:24:46.217Z,6.32
2023-01-29T06:26:17.743Z,6.85
2023-01-29T06:27:52.159Z,7.07
2023-01-29T06:29:23.801Z,6.55
2023-01-29T06:31:11.524Z,7.28
2023-01-29T06:32:47.993Z,7.28
2023-01-29T06:34:19.575Z,7.53
2023-01-29T06:35:59.596Z,7.45
2023-01-29T06:37:31.296Z,7.13
2023-01-29T06:39:03.965Z,7.50
2023-01-29T06:40:35.592Z,7.03
2023-01-29T06:42:07.152Z,6.97
2023-01-29T06:43:39.717Z,6.38
2023-01-29T06:45:11.592Z,7.05
2023-01-29T06:46:43.223Z,6.85
2023-01-29T06:48:14.780Z,7.80
2023-01-29T06:49:46.408Z,6.75
2023-01-29T06:51:18.121Z,7.22
2023-01-29T06:52:49.688Z,6.82
2023-01-29T06:54:21.291Z,6.70
2023-01-29T06:55:53.175Z,6.15
2023-01-29T06:57:24.826Z,6.20
2023-01-29T06:58:56.505Z,6.43
2023-01-29T07:00:30.006Z,5.68
2023-01-29T07:02:03.635Z,5.15
2023-01-29T07:03:35.257Z,5.05
2023-01-29T07:05:07.203Z,5.60
2023-01-29T07:06:38.919Z,5.95
2023-01-29T07:08:10.499Z,6.13
2023-01-29T07:09:43.136Z,6.65
2023-01-29T07:11:14.758Z,5.40
2023-01-29T07:12:46.352Z,5.75
2023-01-29T07:14:17.972Z,5.57
2023-01-29T07:15:49.513Z,4.53
2023-01-29T07:17:21.309Z,4.90
2023-01-29T07:18:52.835Z,5.25
2023-01-29T07:20:26.384Z,6.50
2023-01-29T07:21:58.054Z,5.50
2023-01-29T07:23:29.591Z,5.70
2023-01-29T07:25:01.145Z,5.80
2023-01-29T07:26:32.664Z,5.07
2023-01-29T07:28:07.404Z,5.38
2023-01-29T07:29:39.009Z,6.30
2023-01-29T07:31:14.178Z,5.10
2023-01-29T07:32:45.885Z,4.57
2023-01-29T07:34:17.680Z,4.82
2023-01-29T07:35:49.241Z,5.65
2023-01-29T07:37:20.842Z,7.00
2023-01-29T07:38:52.677Z,7.47
2023-01-29T07:40:24.324Z,6.57
2023-01-29T07:41:55.896Z,6.93
2023-01-29T07:43:27.901Z,6.18
2023-01-29T07:44:59.493Z,7.15
2023-01-29T07:46:31.195Z,5.25
2023-01-29T07:48:05.045Z,5.47
2023-01-29T07:49:36.643Z,6.28
2023-01-29T07:51:08.310Z,6.60
2023-01-29T07:52:39.889Z,5.88
2023-01-29T07:54:11.483Z,6.72
2023-01-29T07:55:45.787Z,6.35
2023-01-29T07:57:17.407Z,6.63
2023-01-29T07:58:49.063Z,6.20
2023-01-29T08:00:21.162Z,5.95
2023-01-29T08:01:52.825Z,6.32
2023-01-29T08:03:24.574Z,6.93
2023-01-29T08:04:56.246Z,6.60
2023-01-29T08:06:27.895Z,4.95
2023-01-29T08:08:06.587Z,5.07
2023-01-29T08:09:38.507Z,5.25
2023-01-29T08:11:10.259Z,4.93
2023-01-29T08:12:41.841Z,4.90
2023-01-29T08:14:13.426Z,6.22
2023-01-29T08:15:46.058Z,6.68
2023-01-29T08:17:17.705Z,5.65
2023-01-29T08:18:49.316Z,5.78
2023-01-29T08:20:22.009Z,5.50
2023-01-29T08:21:53.638Z,7.45
2023-01-29T08:23:25.218Z,8.50
2023-01-29T08:25:06.334Z,6.88
2023-01-29T08:26:39.711Z,7.07
2023-01-29T08:28:12.414Z,5.50
2023-01-29T08:29:44.317Z,6.07
2023-01-29T08:31:17.622Z,6.15
2023-01-29T08:32:49.361Z,4.35
2023-01-29T08:34:21.008Z,3.75
2023-01-29T08:35:52.596Z,3.78
2023-01-29T08:37:24.468Z,4.88
2023-01-29T08:38:56.195Z,4.47
2023-01-29T08:40:30.220Z,4.57
2023-01-29T08:42:01.917Z,4.07
2023-01-29T08:43:37.093Z,8.15
2023-01-29T08:45:09.371Z,8.93
2023-01-29T08:46:41.266Z,4.88
2023-01-29T08:48:13.185Z,4.93
2023-01-29T08:49:44.804Z,6.72
2023-01-29T08:51:16.476Z,27.55
2023-01-29T08:52:48.070Z,45.78
2023-01-29T08:54:19.682Z,37.22
2023-01-29T08:55:52.075Z,45.28
2023-01-29T08:57:23.695Z,11.07
2023-01-29T08:58:55.327Z,5.63
2023-01-29T09:00:26.964Z,9.15
2023-01-29T09:01:58.552Z,5.35
2023-01-29T09:03:30.203Z,4.57
2023-01-29T09:05:01.885Z,4.07
2023-01-29T09:06:33.576Z,4.97
2023-01-29T09:08:05.956Z,4.25
2023-01-29T09:09:38.356Z,5.63
2023-01-29T09:11:10.613Z,4.50
2023-01-29T09:12:42.257Z,3.45
2023-01-29T09:14:14.711Z,3.63
2023-01-29T09:15:46.302Z,4.75
2023-01-29T09:17:18.002Z,4.28
2023-01-29T09:18:49.644Z,5.40
2023-01-29T09:20:21.507Z,4.47
2023-01-29T09:21:53.164Z,4.05
2023-01-29T09:23:24.967Z,4.13
2023-01-29T09:24:56.633Z,3.75
2023-01-29T09:26:28.405Z,3.45
2023-01-29T09:28:00.132Z,4.10
2023-01-29T09:29:33.535Z,4.00
2023-01-29T09:31:06.550Z,4.03
2023-01-29T09:32:54.674Z,3.50
2023-01-29T09:34:26.503Z,3.10
2023-01-29T09:35:58.357Z,3.83
2023-01-29T09:37:29.970Z,4.78
2023-01-29T09:39:01.579Z,6.03
2023-01-29T09:40:36.011Z,10.73
2023-01-29T09:42:16.559Z,7.63
2023-01-29T09:43:51.482Z,7.45
2023-01-29T09:45:28.670Z,4.75
2023-01-29T09:47:05.145Z,3.85
2023-01-29T09:48:37.230Z,4.05
2023-01-29T09:50:15.728Z,3.90
2023-01-29T09:51:52.564Z,4.45
2023-01-29T09:53:30.475Z,3.17
2023-01-29T09:55:14.712Z,3.97
2023-01-29T09:56:47.967Z,3.83
2023-01-29T09:58:30.420Z,4.18
2023-01-29T10:00:02.068Z,4.25
2023-01-29T10:01:49.433Z,4.30
2023-01-29T10:03:29.932Z,3.80
2023-01-29T10:05:23.320Z,3.75
2023-01-29T10:07:00.592Z,4.07
2023-01-29T10:08:57.070Z,3.83
2023-01-29T10:10:39.251Z,3.08
2023-01-29T10:12:49.264Z,3.33
2023-01-29T10:14:23.879Z,3.00
2023-01-29T10:16:10.809Z,2.85
2023-01-29T10:18:04.137Z,3.03
2023-01-29T10:19:44.641Z,2.95
2023-01-29T10:21:34.250Z,2.60
2023-01-29T10:23:15.100Z,2.88
2023-01-29T10:24:52.732Z,3.25
2023-01-29T10:26:27.978Z,3.50
2023-01-29T10:28:00.956Z,3.53
2023-01-29T10:29:34.274Z,3.30
2023-01-29T10:31:25.184Z,3.75
2023-01-29T10:33:02.366Z,6.57
2023-01-29T10:34:41.139Z,4.40
2023-01-29T10:36:25.213Z,3.83
2023-01-29T10:38:02.345Z,6.53
2023-01-29T10:39:34.530Z,4.13
2023-01-29T10:41:12.010Z,4.35
2023-01-29T10:42:50.041Z,7.05
2023-01-29T10:44:34.619Z,5.13
2023-01-29T10:46:20.843Z,4.13
2023-01-29T10:48:35.186Z,4.00
2023-01-29T10:50:19.212Z,3.80
2023-01-29T10:51:58.511Z,4.95
2023-01-29T10:53:54.259Z,3.88
2023-01-29T10:55:35.544Z,3.38
2023-01-29T10:57:26.056Z,3.53
2023-01-29T10:59:05.434Z,4.00
2023-01-29T11:00:42.006Z,3.75
2023-01-29T11:02:21.211Z,3.50
2023-01-29T11:04:02.317Z,3.15
2023-01-29T11:05:44.393Z,3.03
2023-01-29T11:07:18.608Z,3.25
2023-01-29T11:08:53.332Z,4.10
2023-01-29T11:10:25.811Z,4.28
2023-01-29T11:12:05.948Z,4.72
2023-01-29T11:14:00.533Z,3.45
2023-01-29T11:15:36.604Z,3.22
2023-01-29T11:17:16.329Z,3.53
2023-01-29T11:19:01.722Z,3.42
2023-01-29T11:20:34.132Z,3.75
2023-01-29T11:22:09.402Z,3.20
2023-01-29T11:23:41.064Z,3.63
2023-01-29T11:25:20.255Z,3.83
2023-01-29T11:26:54.653Z,3.25
2023-01-29T11:28:36.416Z,3.67
2023-01-29T11:30:16.567Z,3.63
2023-01-29T11:31:48.737Z,5.22
2023-01-29T11:33:22.086Z,3.30
2023-01-29T11:35:15.934Z,3.50
2023-01-29T11:36:57.456Z,4.30
2023-01-29T11:38:29.699Z,3.83
2023-01-29T11:40:01.362Z,4.43
2023-01-29T11:41:43.835Z,5.35
2023-01-29T11:44:50.248Z,3.22
2023-01-29T11:46:21.939Z,3.17
2023-01-29T11:47:56.622Z,5.55
2023-01-29T11:49:33.515Z,3.92
2023-01-29T11:51:06.325Z,4.63
2023-01-29T11:52:42.184Z,3.22
2023-01-29T11:54:19.723Z,4.10
2023-01-29T11:55:51.833Z,5.20
2023-01-29T11:57:26.304Z,7.75
2023-01-29T11:58:58.997Z,5.22
2023-01-29T12:00:33.585Z,5.25
2023-01-29T12:02:28.218Z,4.32
2023-01-29T12:04:00.648Z,4.15
2023-01-29T12:05:32.767Z,4.22
2023-01-29T12:07:11.607Z,3.72
2023-01-29T12:08:43.325Z,5.43
2023-01-29T12:10:36.082Z,4.90
2023-01-29T12:12:35.317Z,5.40
2023-01-29T12:14:29.984Z,4.47
2023-01-29T12:16:17.196Z,3.88
2023-01-29T12:17:57.359Z,6.53
2023-01-29T12:19:43.769Z,5.93
2023-01-29T12:21:35.826Z,5.25
2023-01-29T12:23:27.299Z,5.88
2023-01-29T12:25:02.017Z,6.35
2023-01-29T12:26:39.405Z,6.32
2023-01-29T12:28:29.891Z,4.43
2023-01-29T12:30:33.221Z,4.15
2023-01-29T12:32:14.659Z,3.90
2023-01-29T12:34:05.020Z,4.25
2023-01-29T12:35:44.060Z,4.40
2023-01-29T12:37:54.301Z,3.95
2023-01-29T12:39:26.395Z,5.15
2023-01-29T12:41:09.781Z,5.22
2023-01-29T12:42:55.517Z,4.70
2023-01-29T12:44:37.462Z,4.18
2023-01-29T12:46:21.924Z,8.65
2023-01-29T12:48:01.572Z,5.30
2023-01-29T12:49:38.379Z,4.30
2023-01-29T12:51:15.128Z,4.68
2023-01-29T12:52:58.547Z,3.97
2023-01-29T12:54:53.334Z,5.07
2023-01-29T12:56:39.783Z,4.65
2023-01-29T12:58:25.348Z,4.30
2023-01-29T13:00:06.575Z,3.75
2023-01-29T13:01:46.859Z,4.38
2023-01-29T13:03:44.052Z,4.57
2023-01-29T13:05:36.800Z,4.07
2023-01-29T13:07:14.919Z,3.88
2023-01-29T13:08:58.204Z,4.35
2023-01-29T13:10:36.989Z,4.18
2023-01-29T13:12:15.963Z,4.18
2023-01-29T13:14:16.889Z,4.75
2023-01-29T13:15:49.002Z,4.10
2023-01-29T13:17:31.136Z,4.75
2023-01-29T13:19:04.488Z,3.60
2023-01-29T13:20:38.818Z,4.15
2023-01-29T13:22:26.342Z,4.60
2023-01-29T13:24:03.237Z,4.18
2023-01-29T13:25:34.911Z,4.25
2023-01-29T13:27:06.916Z,5.22
2023-01-29T13:28:39.687Z,4.18
2023-01-29T13:30:33.430Z,4.43
2023-01-29T13:32:05.746Z,3.88
2023-01-29T13:33:40.762Z,4.18
2023-01-29T13:35:15.084Z,4.28
2023-01-29T13:36:59.574Z,4.10
2023-01-29T13:38:35.396Z,4.00
2023-01-29T13:40:08.623Z,4.78
2023-01-29T13:41:42.745Z,4.25
2023-01-29T13:43:21.719Z,3.92
2023-01-29T13:44:57.421Z,3.80
2023-01-29T13:46:30.030Z,4.40
2023-01-29T13:48:18.440Z,4.63
2023-01-29T13:50:17.888Z,3.67
2023-01-29T13:51:49.877Z,3.90
2023-01-29T13:53:29.121Z,4.03
2023-01-29T13:55:22.386Z,4.38
2023-01-29T13:56:58.548Z,4.57
2023-01-29T14:00:06.291Z,4.60
2023-01-29T14:02:05.074Z,3.83
2023-01-29T14:04:03.720Z,4.07
2023-01-29T14:05:58.227Z,4.38
2023-01-29T14:07:49.979Z,4.28
2023-01-29T14:09:36.750Z,3.97
2023-01-29T14:11:17.377Z,3.90
2023-01-29T14:13:23.830Z,4.68
2023-01-29T14:14:55.526Z,5.20
2023-01-29T14:16:35.190Z,4.63
2023-01-29T14:18:25.201Z,4.10
2023-01-29T14:20:04.799Z,4.45
2023-01-29T14:21:37.799Z,4.10
2023-01-29T14:23:28.563Z,4.25
2023-01-29T14:25:05.038Z,3.90
2023-01-29T14:26:44.004Z,3.42
2023-01-29T14:28:23.294Z,4.40
2023-01-29T14:30:06.973Z,4.30
2023-01-29T14:31:43.316Z,3.88
2023-01-29T14:33:31.833Z,3.70
2023-01-29T14:35:17.842Z,4.20
2023-01-29T14:36:55.580Z,4.18
2023-01-29T14:38:29.689Z,4.95
2023-01-29T14:40:16.612Z,4.00
2023-01-29T14:41:50.808Z,4.82
2023-01-29T14:43:22.606Z,5.85
2023-01-29T14:44:54.174Z,5.75
2023-01-29T14:46:35.320Z,4.63
2023-01-29T14:48:20.045Z,5.03
2023-01-29T14:49:55.565Z,5.65
2023-01-29T14:51:30.952Z,4.88
2023-01-29T14:53:11.609Z,5.18
2023-01-29T14:54:43.483Z,5.07
2023-01-29T14:56:22.675Z,5.85
2023-01-29T14:57:58.167Z,5.70
2023-01-29T14:59:37.453Z,6.00
2023-01-29T15:01:27.426Z,4.18
2023-01-29T15:03:02.195Z,3.92
2023-01-29T15:04:44.114Z,4.65
2023-01-29T15:06:20.257Z,4.18
2023-01-29T15:09:55.505Z,4.20
2023-01-29T15:11:49.866Z,4.97
2023-01-29T15:13:27.774Z,6.28
2023-01-29T15:15:16.126Z,5.65
2023-01-29T15:16:50.965Z,5.05
2023-01-29T15:18:34.687Z,4.90
2023-01-29T15:20:27.503Z,4.93
2023-01-29T15:22:17.161Z,4.25
2023-01-29T15:24:04.325Z,4.88
2023-01-29T15:25:47.007Z,4.30
2023-01-29T15:27:20.360Z,4.45
2023-01-29T15:29:04.116Z,4.20
2023-01-29T15:30:37.769Z,4.38
2023-01-29T15:32:16.979Z,4.20
2023-01-29T15:33:51.883Z,4.22
2023-01-29T15:35:34.346Z,3.97
2023-01-29T15:37:06.029Z,5.28
2023-01-29T15:38:37.748Z,4.55
2023-01-29T15:40:17.181Z,4.05
2023-01-29T15:41:53.655Z,3.97
2023-01-29T15:43:29.180Z,4.35
2023-01-29T15:45:00.905Z,4.63
2023-01-29T15:46:39.644Z,5.00
2023-01-29T15:48:18.108Z,4.90
2023-01-29T15:49:49.887Z,4.30
2023-01-29T15:51:25.209Z,4.30
2023-01-29T15:53:00.361Z,4.35
2023-01-29T15:54:35.033Z,5.03
2023-01-29T15:56:11.851Z,4.18
2023-01-29T15:57:45.090Z,4.38
2023-01-29T15:59:24.880Z,4.68
2023-01-29T16:00:59.026Z,4.05
2023-01-29T16:02:43.054Z,4.03
2023-01-29T16:04:28.800Z,4.18
2023-01-29T16:06:01.655Z,4.88
2023-01-29T16:07:34.783Z,4.93
2023-01-29T16:09:08.035Z,5.43
2023-01-29T16:10:42.336Z,4.40
2023-01-29T16:12:14.453Z,5.35
2023-01-29T16:13:49.191Z,4.93
2023-01-29T16:15:30.010Z,6.00
2023-01-29T16:17:22.662Z,5.50
2023-01-29T16:19:00.364Z,4.82
2023-01-29T16:20:37.860Z,5.30
2023-01-29T16:22:09.515Z,5.57
2023-01-29T16:23:49.640Z,4.90
2023-01-29T16:25:21.517Z,5.90
2023-01-29T16:26:59.215Z,6.13
2023-01-29T16:28:31.018Z,5.63
2023-01-29T16:30:05.145Z,5.15
2023-01-29T16:31:38.561Z,5.32
2023-01-29T16:33:17.240Z,5.57
2023-01-29T16:34:49.816Z,5.47
2023-01-29T16:36:27.806Z,5.60
2023-01-29T16:38:06.670Z,5.15
2023-01-29T16:39:45.783Z,5.15
2023-01-29T16:41:26.798Z,5.95
2023-01-29T16:43:17.052Z,6.32
2023-01-29T16:44:51.523Z,5.93
2023-01-29T16:46:33.608Z,7.07
2023-01-29T16:48:27.728Z,6.85
2023-01-29T16:50:00.907Z,5.93
2023-01-29T16:51:39.068Z,7.32
2023-01-29T16:53:28.506Z,6.57
2023-01-29T16:55:28.250Z,5.60
2023-01-29T16:57:02.028Z,6.38
2023-01-29T16:58:34.539Z,7.10
2023-01-29T17:00:21.377Z,7.28
2023-01-29T17:01:55.622Z,5.55
2023-01-29T17:03:30.359Z,5.63
2023-01-29T17:05:08.335Z,6.25
2023-01-29T17:06:47.679Z,4.90
2023-01-29T17:08:27.245Z,6.63
2023-01-29T17:10:02.355Z,5.63
2023-01-29T17:11:38.666Z,6.65
2023-01-29T17:13:21.943Z,5.00
2023-01-29T17:14:59.589Z,5.47
2023-01-29T17:16:34.315Z,5.85
2023-01-29T17:18:19.159Z,6.38
2023-01-29T17:19:50.750Z,6.20
2023-01-29T17:21:22.719Z,6.70
2023-01-29T17:22:54.916Z,8.05
2023-01-29T17:24:26.668Z,7.03
2023-01-29T17:25:59.614Z,7.97
2023-01-29T17:27:31.364Z,7.25
2023-01-29T17:29:03.013Z,7.35
2023-01-29T17:30:37.200Z,8.25
2023-01-29T17:32:09.860Z,9.43
2023-01-29T17:33:43.289Z,8.38
2023-01-29T17:35:17.060Z,7.22
2023-01-29T17:36:48.944Z,7.35
2023-01-29T17:38:26.481Z,8.35
2023-01-29T17:39:59.589Z,11.32
2023-01-29T17:41:31.974Z,14.10
2023-01-29T17:43:03.679Z,18.58
2023-01-29T17:44:35.331Z,17.73
2023-01-29T17:46:11.925Z,13.35
2023-01-29T17:47:43.572Z,9.50
2023-01-29T17:49:24.538Z,9.20
2023-01-29T17:51:00.249Z,11.57
2023-01-29T17:52:32.276Z,10.25
2023-01-29T17:54:03.922Z,7.20
2023-01-29T17:55:36.190Z,7.85
2023-01-29T17:57:10.749Z,7.18
2023-01-29T17:58:42.734Z,7.18
2023-01-29T18:00:23.407Z,7.40
2023-01-29T18:01:55.160Z,8.50
2023-01-29T18:03:27.457Z,8.20
2023-01-29T18:04:59.096Z,9.82
2023-01-29T18:06:31.152Z,9.02
2023-01-29T18:08:03.049Z,7.20
2023-01-29T18:09:34.718Z,7.25
2023-01-29T18:11:06.745Z,8.77
2023-01-29T18:12:38.415Z,11.40
2023-01-29T18:14:14.332Z,12.40
2023-01-29T18:17:22.280Z,11.00
2023-01-29T18:20:25.748Z,9.15
2023-01-29T18:21:57.533Z,9.02
2023-01-29T18:23:31.231Z,10.35
2023-01-29T18:25:03.167Z,9.77
2023-01-29T18:26:36.091Z,9.60
2023-01-29T18:28:10.006Z,10.40
2023-01-29T18:29:41.806Z,9.50
2023-01-29T18:31:14.416Z,9.13
2023-01-29T18:32:47.601Z,10.32
2023-01-29T18:34:19.346Z,10.05
2023-01-29T18:35:51.361Z,9.32
2023-01-29T18:37:23.038Z,8.57
2023-01-29T18:38:54.771Z,7.85
2023-01-29T18:40:27.110Z,9.32
2023-01-29T18:41:58.859Z,9.52
2023-01-29T18:43:30.561Z,10.40
2023-01-29T18:45:03.797Z,9.52
2023-01-29T18:46:35.348Z,8.15
2023-01-29T18:48:07.145Z,9.30
2023-01-29T18:49:39.275Z,10.00
2023-01-29T18:51:10.971Z,9.60
2023-01-29T18:52:44.584Z,9.25
2023-01-29T18:54:18.213Z,10.65
2023-01-29T18:56:16.019Z,8.57
2023-01-29T18:58:34.221Z,9.25
2023-01-29T18:59:39.555Z,8.02
2023-01-29T19:01:12.044Z,7.80
2023-01-29T19:02:45.182Z,9.20
2023-01-29T19:04:16.961Z,8.70
2023-01-29T19:05:48.785Z,8.90
2023-01-29T19:07:20.421Z,9.73
2023-01-29T19:08:52.036Z,8.60
2023-01-29T19:10:23.751Z,10.35
2023-01-29T19:11:55.427Z,9.95
2023-01-29T19:13:27.194Z,8.07
2023-01-29T19:14:58.886Z,7.75
2023-01-29T19:16:30.526Z,9.35
2023-01-29T19:18:02.773Z,9.88
2023-01-29T19:19:34.975Z,10.95
2023-01-29T19:21:15.033Z,9.30
2023-01-29T19:22:46.932Z,9.45
2023-01-29T19:24:18.729Z,9.63
2023-01-29T19:25:50.423Z,11.98
2023-01-29T19:27:22.182Z,10.98
2023-01-29T19:28:53.926Z,12.23
2023-01-29T19:30:25.614Z,13.27
2023-01-29T19:31:57.407Z,12.43
2023-01-29T19:33:29.293Z,10.05
2023-01-29T19:35:01.079Z,10.02
2023-01-29T19:36:32.738Z,9.15
2023-01-29T19:38:04.790Z,7.90
2023-01-29T19:39:36.451Z,8.07
2023-01-29T19:41:08.282Z,8.98
2023-01-29T19:42:40.932Z,9.77
2023-01-29T19:44:12.769Z,10.13
2023-01-29T19:45:49.460Z,9.13
2023-01-29T19:47:22.401Z,8.80
2023-01-29T19:48:57.004Z,9.02
2023-01-29T19:50:28.801Z,8.05
2023-01-29T19:52:01.771Z,9.57
2023-01-29T19:53:33.416Z,9.63
2023-01-29T19:55:07.668Z,9.30
2023-01-29T19:56:40.255Z,8.25
2023-01-29T19:58:12.414Z,9.43
2023-01-29T19:59:45.955Z,10.93
2023-01-29T20:01:20.848Z,9.05
2023-01-29T20:02:52.659Z,9.20
2023-01-29T20:04:24.654Z,8.35
2023-01-29T20:06:02.314Z,8.90
2023-01-29T20:07:36.072Z,9.38
2023-01-29T20:09:08.732Z,8.52
2023-01-29T20:10:45.534Z,8.68
2023-01-29T20:12:17.553Z,10.82
2023-01-29T20:13:51.917Z,10.25
2023-01-29T20:15:23.711Z,9.60
2023-01-29T20:16:55.535Z,8.43
2023-01-29T20:18:27.420Z,8.93
2023-01-29T20:19:59.314Z,9.80
2023-01-29T20:21:31.428Z,9.93
2023-01-29T20:23:03.507Z,9.82
2023-01-29T20:24:39.350Z,9.30
2023-01-29T20:26:14.518Z,10.05
2023-01-29T20:27:46.465Z,8.63
2023-01-29T20:29:18.736Z,10.02
2023-01-29T20:30:55.490Z,9.68
2023-01-29T20:32:27.365Z,8.95
2023-01-29T20:33:59.391Z,8.25
2023-01-29T20:35:32.824Z,10.27
2023-01-29T20:37:04.559Z,11.93
2023-01-29T20:38:36.660Z,10.90
2023-01-29T20:40:09.211Z,11.10
2023-01-29T20:41:41.894Z,10.82
2023-01-29T20:43:13.719Z,13.77
2023-01-29T20:44:45.826Z,13.60
2023-01-29T20:46:18.166Z,14.45
2023-01-29T20:47:50.236Z,12.60
2023-01-29T20:49:22.125Z,11.50
2023-01-29T20:50:54.420Z,10.75
2023-01-29T20:52:26.149Z,10.55
2023-01-29T20:53:58.274Z,10.73
2023-01-29T20:55:30.287Z,8.93
2023-01-29T20:57:02.338Z,7.32
2023-01-29T20:58:34.199Z,9.43
2023-01-29T21:00:07.530Z,8.70
2023-01-29T21:01:39.316Z,8.23
2023-01-29T21:03:11.201Z,9.07
2023-01-29T21:04:44.416Z,7.55
2023-01-29T21:06:16.389Z,8.18
2023-01-29T21:07:48.078Z,9.80
2023-01-29T21:09:20.864Z,8.00
2023-01-29T21:10:53.269Z,9.10
2023-01-29T21:12:25.028Z,9.02
2023-01-29T21:13:57.838Z,9.98
2023-01-29T21:15:29.548Z,8.43
2023-01-29T21:17:01.968Z,8.13
2023-01-29T21:18:33.950Z,8.60
2023-01-29T21:20:08.235Z,9.25
2023-01-29T21:21:39.913Z,8.15
2023-01-29T21:23:11.905Z,6.85
2023-01-29T21:24:43.639Z,8.70
2023-01-29T21:26:15.312Z,8.77
2023-01-29T21:27:47.059Z,8.93
2023-01-29T21:29:18.939Z,8.60
2023-01-29T21:30:50.701Z,8.00
2023-01-29T21:32:22.529Z,8.35
2023-01-29T21:33:54.223Z,9.38
2023-01-29T21:35:26.237Z,10.27
2023-01-29T21:36:57.901Z,9.00
2023-01-29T21:38:29.719Z,9.45
2023-01-29T21:40:01.381Z,8.70
2023-01-29T21:41:51.755Z,8.60